Time;durP1;ratioP1;P1;durP2;ratioP2;P2;SDS_P1;SDS_P2;PMS_P1;PMS_P2;Temp;Humidity;BMP_temperature;BMP_pressure;BME280_temperature;BME280_humidity;BME280_pressure;Samples;Min_cycle;Max_cycle;Signal;HPM_P1;HPM_P2
2022/02/16 00:00:19;;;;;;;;;2.00;2.00;;;;;-147.17;100.00;50255.44;4993565;28;50984;-61
2022/02/16 00:02:44;;;;;;;;;1.67;1.67;;;;;-147.17;100.00;50241.66;4993113;28;51211;-60
2022/02/16 00:05:11;;;;;;;;;2.00;1.67;;;;;-147.17;100.00;50253.47;4978189;28;50909;-61
2022/02/16 00:07:39;;;;;;;;;1.00;1.00;;;;;-147.17;100.00;50229.84;4993445;28;50968;-61
2022/02/16 00:10:06;;;;;;;;;0.00;0.00;;;;;-147.17;100.00;50227.88;4993544;28;51121;-61
2022/02/16 00:12:31;;;;;;;;;1.00;1.00;;;;;-147.17;100.00;50245.59;4993466;28;51032;-61
2022/02/16 00:14:57;;;;;;;;;0.00;0.00;;;;;-147.17;100.00;50255.44;4992959;28;51279;-60
2022/02/16 00:17:22;;;;;;;;;0.33;0.33;;;;;-147.17;100.00;50237.72;4992764;28;50958;-60
2022/02/16 00:19:48;;;;;;;;;3.00;2.00;;;;;-147.17;100.00;50239.69;4993110;28;51797;-61
2022/02/16 00:22:13;;;;;;;;;1.00;1.00;;;;;-147.17;100.00;50221.97;4993087;28;51043;-61
2022/02/16 00:24:38;;;;;;;;;0.00;0.00;;;;;-147.17;100.00;50229.84;4992893;28;51055;-61
2022/02/16 00:27:04;;;;;;;;;0.00;0.00;;;;;-147.17;100.00;50225.91;4993372;28;51226;-61
2022/02/16 00:29:29;;;;;;;;;0.00;0.00;;;;;-147.17;100.00;50261.34;4975309;28;53619;-61
2022/02/16 00:31:54;;;;;;;;;1.00;1.00;;;;;-147.17;100.00;50237.72;4992261;28;51099;-61
2022/02/16 00:34:20;;;;;;;;;0.67;0.67;;;;;-147.17;100.00;50225.91;4975216;28;51130;-61
2022/02/16 00:36:45;;;;;;;;;0.00;0.00;;;;;-147.17;100.00;50206.22;4993492;28;51238;-61
2022/02/16 00:39:10;;;;;;;;;0.33;0.33;;;;;-147.17;100.00;50223.94;4973769;28;51985;-61
2022/02/16 00:41:36;;;;;;;;;0.00;0.00;;;;;-147.17;100.00;50229.84;4992402;28;51194;-61
2022/02/16 00:44:01;;;;;;;;;1.00;1.00;;;;;-147.17;100.00;50253.47;4992709;28;51182;-61
2022/02/16 00:46:27;;;;;;;;;1.00;1.00;;;;;-147.17;100.00;50259.38;4992795;28;51024;-60
2022/02/16 00:48:52;;;;;;;;;0.00;0.00;;;;;-147.17;100.00;50251.50;4985567;28;51495;-60
2022/02/16 00:51:17;;;;;;;;;1.00;1.00;;;;;-147.17;100.00;50257.41;4990419;28;51088;-60
2022/02/16 00:53:43;;;;;;;;;0.00;0.00;;;;;-147.17;100.00;50221.97;4970007;28;51027;-61
2022/02/16 00:56:08;;;;;;;;;0.00;0.00;;;;;-147.17;100.00;50245.59;4989706;28;51182;-60
2022/02/16 00:58:34;;;;;;;;;0.00;0.00;;;;;-147.17;100.00;50245.59;4969607;28;51985;-61
2022/02/16 01:00:59;;;;;;;;;0.00;0.00;;;;;-147.17;100.00;50198.34;4990272;28;50885;-62
2022/02/16 01:03:24;;;;;;;;;0.00;0.00;;;;;-147.17;100.00;50190.47;4975288;28;51254;-61
2022/02/16 01:05:50;;;;;;;;;0.00;0.00;;;;;-147.17;100.00;50214.09;4991801;28;51163;-61
2022/02/16 01:08:15;;;;;;;;;0.00;0.00;;;;;-147.17;100.00;50233.78;4991186;28;52126;-61
2022/02/16 01:10:42;;;;;;;;;0.00;0.00;;;;;-147.17;100.00;50194.41;4991786;28;51115;-61
2022/02/16 01:13:08;;;;;;;;;0.00;0.00;;;;;-147.17;100.00;50210.16;4992549;28;51103;-62
2022/02/16 01:15:34;;;;;;;;;0.00;0.00;;;;;-147.17;100.00;50186.53;4975037;28;51025;-60
2022/02/16 01:17:59;;;;;;;;;0.00;0.00;;;;;-147.17;100.00;50186.53;4992358;28;51059;-60
2022/02/16 01:20:25;;;;;;;;;0.00;0.00;;;;;-147.17;100.00;50166.84;4974769;28;51220;-60
2022/02/16 01:22:51;;;;;;;;;0.00;0.00;;;;;-147.17;100.00;50214.09;4991946;28;50917;-61
2022/02/16 01:25:16;;;;;;;;;0.00;0.00;;;;;-147.17;100.00;50214.09;4991916;28;51150;-61
2022/02/16 01:27:42;;;;;;;;;1.00;1.00;;;;;-147.17;100.00;50182.59;4992194;28;51620;-60
2022/02/16 01:30:08;;;;;;;;;0.00;0.00;;;;;-147.17;100.00;50172.75;4990910;28;51067;-60
2022/02/16 01:32:34;;;;;;;;;0.33;0.33;;;;;-147.17;100.00;50190.47;4992747;28;51088;-60
2022/02/16 01:34:59;;;;;;;;;0.00;0.00;;;;;-147.17;100.00;50170.78;4991077;28;51179;-60
2022/02/16 01:37:24;;;;;;;;;0.00;0.00;;;;;-147.17;100.00;50170.78;4974780;28;53076;-60
2022/02/16 01:39:50;;;;;;;;;0.00;0.00;;;;;-147.17;100.00;50168.81;4991726;28;51197;-60
2022/02/16 01:42:20;;;;;;;;;0.00;0.00;;;;;-147.17;100.00;50198.34;4992589;28;51091;-61
2022/02/16 01:44:46;;;;;;;;;1.00;0.33;;;;;-147.17;100.00;50212.13;4989986;28;51317;-61
2022/02/16 01:47:12;;;;;;;;;0.00;0.00;;;;;-147.17;100.00;50129.44;4991970;28;51096;-61
2022/02/16 01:49:39;;;;;;;;;0.00;0.00;;;;;-147.17;100.00;50170.78;4991679;28;50906;-61
2022/02/16 01:52:05;;;;;;;;;0.00;0.00;;;;;-147.17;100.00;50174.72;4991481;28;51163;-61
2022/02/16 01:54:31;;;;;;;;;0.00;0.00;;;;;-147.17;100.00;50139.28;4971559;28;51275;-60
2022/02/16 01:56:57;;;;;;;;;0.00;0.00;;;;;-147.17;100.00;50166.84;4983930;28;51905;-61
2022/02/16 01:59:24;;;;;;;;;0.00;0.00;;;;;-147.17;100.00;50137.31;4991968;28;51227;-61
2022/02/16 02:01:49;;;;;;;;;1.00;1.00;;;;;-147.17;100.00;50119.59;4991098;28;51181;-61
2022/02/16 02:04:16;;;;;;;;;1.00;1.00;;;;;-147.17;100.00;50147.16;4991504;28;50948;-61
2022/02/16 02:06:42;;;;;;;;;0.00;0.00;;;;;-147.17;100.00;50135.34;4992274;28;51887;-60
2022/02/16 02:09:08;;;;;;;;;0.00;0.00;;;;;-147.17;100.00;50190.47;4995193;28;51127;-60
2022/02/16 02:11:33;;;;;;;;;0.00;0.00;;;;;-147.17;100.00;50131.41;4994667;28;51074;-61
2022/02/16 02:14:01;;;;;;;;;0.00;0.00;;;;;-147.17;100.00;50141.25;4995555;28;51365;-61
2022/02/16 02:16:27;;;;;;;;;0.00;0.00;;;;;-147.17;100.00;50147.16;4994893;28;52786;-61
2022/02/16 02:18:54;;;;;;;;;0.00;0.00;;;;;-147.17;100.00;50135.34;4994537;28;51196;-60
2022/02/16 02:21:21;;;;;;;;;0.00;0.00;;;;;-147.17;100.00;50135.34;4995264;28;50944;-60
2022/02/16 02:23:48;;;;;;;;;0.33;0.00;;;;;-147.17;100.00;50147.16;4995139;28;51226;-60
2022/02/16 02:26:14;;;;;;;;;0.00;0.00;;;;;-147.17;100.00;50151.09;4994632;28;50925;-61
2022/02/16 02:28:40;;;;;;;;;0.00;0.00;;;;;-147.17;100.00;50119.59;4994879;28;50968;-61
2022/02/16 02:31:06;;;;;;;;;0.00;0.00;;;;;-147.17;100.00;50092.03;4994776;28;51130;-61
2022/02/16 02:33:31;;;;;;;;;0.00;0.00;;;;;-147.17;100.00;50119.59;4994501;28;51237;-61
2022/02/16 02:35:57;;;;;;;;;1.00;0.00;;;;;-147.17;100.00;50113.69;4994566;28;51915;-61
2022/02/16 02:38:22;;;;;;;;;0.00;0.00;;;;;-147.17;100.00;50095.97;4994278;28;51213;-61
2022/02/16 02:40:55;;;;;;;;;0.00;0.00;;;;;-147.17;100.00;50072.38;4994902;28;51110;-61
2022/02/16 02:43:20;;;;;;;;;0.00;0.00;;;;;-147.17;100.00;50074.34;4994854;28;51126;-61
2022/02/16 02:45:47;;;;;;;;;1.00;1.00;;;;;-147.17;100.00;50095.97;4975590;28;51904;-61
2022/02/16 02:48:12;;;;;;;;;0.00;0.00;;;;;-147.17;100.00;50119.59;4995144;28;51027;-61
2022/02/16 02:50:38;;;;;;;;;0.00;0.00;;;;;-147.17;100.00;50103.84;4993789;28;51142;-61
2022/02/16 02:53:03;;;;;;;;;0.00;0.00;;;;;-147.17;100.00;50115.66;4992736;28;51352;-61
2022/02/16 02:55:29;;;;;;;;;0.00;0.00;;;;;-147.17;100.00;50113.69;4990119;28;51714;-62
2022/02/16 02:57:54;;;;;;;;;0.00;0.00;;;;;-147.17;100.00;50086.16;4994767;28;51055;-61
2022/02/16 03:00:20;;;;;;;;;0.00;0.00;;;;;-147.17;100.00;50092.03;4990119;28;51905;-60
2022/02/16 03:02:45;;;;;;;;;0.00;0.00;;;;;-147.17;100.00;50088.13;4977293;28;51473;-61
2022/02/16 03:05:12;;;;;;;;;0.33;0.00;;;;;-147.17;100.00;50062.53;4994477;28;50962;-61
2022/02/16 03:07:38;;;;;;;;;0.00;0.00;;;;;-147.17;100.00;50086.16;4994024;28;51052;-61
2022/02/16 03:10:04;;;;;;;;;0.00;0.00;;;;;-147.17;100.00;50095.97;4994128;28;51147;-62
2022/02/16 03:12:29;;;;;;;;;0.00;0.00;;;;;-147.17;100.00;50074.34;4976899;28;51512;-62
2022/02/16 03:14:54;;;;;;;;;0.00;0.00;;;;;-147.17;100.00;50084.19;4993589;28;52160;-61
2022/02/16 03:17:20;;;;;;;;;0.00;0.00;;;;;-147.17;100.00;50082.22;4994833;28;51012;-61
2022/02/16 03:19:46;;;;;;;;;0.00;0.00;;;;;-147.17;100.00;50056.63;4994788;28;51235;-62
2022/02/16 03:22:12;;;;;;;;;0.00;0.00;;;;;-147.17;100.00;50054.66;4971323;28;51123;-62
2022/02/16 03:24:37;;;;;;;;;0.00;0.00;;;;;-147.17;100.00;50056.63;4986631;28;51187;-61
2022/02/16 03:27:03;;;;;;;;;0.00;0.00;;;;;-147.17;100.00;50048.75;4994347;28;51011;-61
2022/02/16 03:29:28;;;;;;;;;0.00;0.00;;;;;-147.17;100.00;50064.50;4993651;28;51204;-60
2022/02/16 03:31:54;;;;;;;;;0.00;0.00;;;;;-147.17;100.00;50088.13;4992839;28;51117;-61
2022/02/16 03:34:19;;;;;;;;;0.00;0.00;;;;;-147.17;100.00;50040.88;4994101;28;51372;-60
2022/02/16 03:36:44;;;;;;;;;0.00;0.00;;;;;-147.17;100.00;50058.59;4993982;28;51019;-61
2022/02/16 03:39:10;;;;;;;;;0.00;0.00;;;;;-147.17;100.00;50040.88;4993880;28;51232;-60
2022/02/16 03:41:36;;;;;;;;;0.00;0.00;;;;;-147.17;100.00;50038.91;4975420;28;51255;-60
2022/02/16 03:44:01;;;;;;;;;0.00;0.00;;;;;-147.17;100.00;50029.06;4976168;28;50948;-60
2022/02/16 03:46:26;;;;;;;;;0.00;0.00;;;;;-147.17;100.00;50011.34;4993565;28;50898;-60
2022/02/16 03:48:52;;;;;;;;;0.00;0.00;;;;;-147.17;100.00;50025.13;4994133;28;51005;-60
2022/02/16 03:51:18;;;;;;;;;0.00;0.00;;;;;-147.17;100.00;50023.16;4993643;28;51031;-61
2022/02/16 03:53:44;;;;;;;;;0.00;0.00;;;;;-147.17;100.00;50021.19;4985845;28;51670;-61
2022/02/16 03:56:09;;;;;;;;;0.00;0.00;;;;;-147.17;100.00;50040.88;4993846;28;50983;-61
2022/02/16 03:58:34;;;;;;;;;0.00;0.00;;;;;-147.17;100.00;50040.88;4993330;28;50868;-61
2022/02/16 04:01:02;;;;;;;;;0.00;0.00;;;;;-147.17;100.00;50034.97;4993201;28;51110;-60
2022/02/16 04:03:27;;;;;;;;;0.00;0.00;;;;;-147.17;100.00;50044.81;4976002;28;51984;-61
2022/02/16 04:05:53;;;;;;;;;0.00;0.00;;;;;-147.17;100.00;50017.25;4992747;28;51082;-61
2022/02/16 04:08:18;;;;;;;;;0.00;0.00;;;;;-147.17;100.00;50015.28;4994151;28;50919;-61
2022/02/16 04:10:43;;;;;;;;;0.00;0.00;;;;;-147.17;100.00;50005.44;4992105;28;51299;-60
2022/02/16 04:13:09;;;;;;;;;0.00;0.00;;;;;-147.17;100.00;50005.44;4992726;28;50976;-60
2022/02/16 04:15:35;;;;;;;;;0.00;0.00;;;;;-147.17;100.00;49999.53;4992795;28;51212;-60
2022/02/16 04:18:01;;;;;;;;;0.00;0.00;;;;;-147.17;100.00;49993.63;4993723;28;50949;-60
2022/02/16 04:20:26;;;;;;;;;0.00;0.00;;;;;-147.17;100.00;50001.50;4993116;28;51238;-60
2022/02/16 04:22:52;;;;;;;;;0.00;0.00;;;;;-147.17;100.00;50017.25;4993442;28;51808;-63
2022/02/16 04:25:18;;;;;;;;;0.00;0.00;;;;;-147.17;100.00;49993.63;4993090;28;51111;-60
2022/02/16 04:27:45;;;;;;;;;0.00;0.00;;;;;-147.17;100.00;49970.00;4991874;28;51165;-60
2022/02/16 04:30:10;;;;;;;;;0.00;0.00;;;;;-147.17;100.00;49962.13;4991807;28;51136;-60
2022/02/16 04:32:37;;;;;;;;;0.00;0.00;;;;;-147.17;100.00;49993.63;4975539;28;54768;-61
2022/02/16 04:35:03;;;;;;;;;0.00;0.00;;;;;-147.17;100.00;49993.63;4975641;28;51045;-61
2022/02/16 04:37:28;;;;;;;;;0.00;0.00;;;;;-147.17;100.00;49997.56;4975825;28;51049;-61
2022/02/16 04:39:54;;;;;;;;;0.00;0.00;;;;;-147.17;100.00;49973.94;4992648;28;51182;-61
2022/02/16 04:42:19;;;;;;;;;0.00;0.00;;;;;-147.17;100.00;49983.78;4992290;28;51863;-60
2022/02/16 04:44:45;;;;;;;;;0.00;0.00;;;;;-147.17;100.00;49968.03;4991521;28;51060;-61
2022/02/16 04:47:10;;;;;;;;;0.00;0.00;;;;;-147.17;100.00;49966.06;4991833;28;51001;-61
2022/02/16 04:49:35;;;;;;;;;0.00;0.00;;;;;-147.17;100.00;49950.31;4993329;28;51217;-61
2022/02/16 04:52:02;;;;;;;;;0.00;0.00;;;;;-147.17;100.00;49962.13;4992431;28;52162;-61
2022/02/16 04:54:27;;;;;;;;;0.00;0.00;;;;;-147.17;100.00;49946.38;4993307;28;51040;-61
2022/02/16 04:56:53;;;;;;;;;0.00;0.00;;;;;-147.17;100.00;49962.13;4975585;28;51056;-61
2022/02/16 04:59:18;;;;;;;;;0.00;0.00;;;;;-147.17;100.00;49989.69;4992990;28;51265;-61
2022/02/16 05:01:44;;;;;;;;;0.00;0.00;;;;;-147.17;100.00;49942.44;4988843;28;51687;-61
2022/02/16 05:04:09;;;;;;;;;0.00;0.00;;;;;-147.17;100.00;49964.09;4993014;28;51044;-61
2022/02/16 05:06:37;;;;;;;;;0.00;0.00;;;;;-147.17;100.00;49954.25;4992563;28;51667;-61
2022/02/16 05:09:07;;;;;;;;;0.00;0.00;;;;;-147.17;100.00;49966.06;4983432;28;51212;-61
2022/02/16 05:11:32;;;;;;;;;0.00;0.00;;;;;-147.17;100.00;49989.69;4992824;28;51170;-62
2022/02/16 05:13:58;;;;;;;;;0.00;0.00;;;;;-147.17;100.00;49970.00;4992497;28;50999;-61
2022/02/16 05:16:23;;;;;;;;;0.00;0.00;;;;;-147.17;100.00;49954.25;4992616;28;51155;-61
2022/02/16 05:18:49;;;;;;;;;0.00;0.00;;;;;-147.17;100.00;49954.25;4992296;28;51144;-61
2022/02/16 05:21:14;;;;;;;;;0.00;0.00;;;;;-147.17;100.00;49948.34;4991693;28;51850;-61
2022/02/16 05:23:41;;;;;;;;;0.00;0.00;;;;;-147.17;100.00;49946.38;4992953;28;51040;-60
2022/02/16 05:26:06;;;;;;;;;0.00;0.00;;;;;-147.17;100.00;49936.53;4992810;28;51121;-61
2022/02/16 05:28:31;;;;;;;;;0.00;0.00;;;;;-147.17;100.00;49916.88;4992333;28;50941;-60
2022/02/16 05:30:57;;;;;;;;;0.00;0.00;;;;;-147.17;100.00;49926.69;4990745;28;51136;-61
2022/02/16 05:33:22;;;;;;;;;0.00;0.00;;;;;-147.17;100.00;49973.94;4992417;28;51145;-61
2022/02/16 05:35:49;;;;;;;;;0.00;0.00;;;;;-147.17;100.00;49938.50;4991990;28;51118;-61
2022/02/16 05:38:14;;;;;;;;;0.00;0.00;;;;;-147.17;100.00;49928.66;4993122;28;51116;-60
2022/02/16 05:40:42;;;;;;;;;0.00;0.00;;;;;-147.17;100.00;49920.81;4992297;28;52100;-61
2022/02/16 05:43:10;;;;;;;;;0.00;0.00;;;;;-147.17;100.00;49928.66;4994841;28;51157;-61
2022/02/16 05:45:36;;;;;;;;;0.00;0.00;;;;;-147.17;100.00;49940.47;4995659;28;51040;-61
2022/02/16 05:48:01;;;;;;;;;0.00;0.00;;;;;-147.17;100.00;49954.25;4978845;28;50977;-61
2022/02/16 05:50:27;;;;;;;;;0.00;0.00;;;;;-147.17;100.00;49903.09;4993928;28;51088;-61
2022/02/16 05:52:52;;;;;;;;;0.00;0.00;;;;;-147.17;100.00;49914.91;4995849;28;50983;-61
2022/02/16 05:55:17;;;;;;;;;0.00;0.00;;;;;-147.17;100.00;49966.06;4995893;28;51393;-61
2022/02/16 05:57:43;;;;;;;;;0.00;0.00;;;;;-147.17;100.00;49934.56;4995197;28;50973;-61
2022/02/16 06:00:09;;;;;;;;;0.00;0.00;;;;;-147.17;100.00;49930.63;4995461;28;51580;-61
2022/02/16 06:02:34;;;;;;;;;0.00;0.00;;;;;-147.17;100.00;49903.09;4995421;28;51134;-61
2022/02/16 06:04:59;;;;;;;;;0.00;0.00;;;;;-147.17;100.00;49895.22;4995035;28;51045;-60
2022/02/16 06:07:25;;;;;;;;;0.00;0.00;;;;;-147.17;100.00;49899.16;4994458;28;51272;-61
2022/02/16 06:09:50;;;;;;;;;0.00;0.00;;;;;-147.17;100.00;49899.16;4994446;28;51809;-60
2022/02/16 06:12:15;;;;;;;;;1.00;1.00;;;;;-147.17;100.00;49924.72;4977502;28;51023;-60
2022/02/16 06:14:41;;;;;;;;;0.00;0.00;;;;;-147.17;100.00;49918.84;4977565;28;51989;-60
2022/02/16 06:17:06;;;;;;;;;0.00;0.00;;;;;-147.17;100.00;49912.94;4976922;28;50912;-60
2022/02/16 06:19:31;;;;;;;;;0.00;0.00;;;;;-147.17;100.00;49918.84;4976452;28;53120;-61
2022/02/16 06:21:57;;;;;;;;;0.00;0.00;;;;;-147.17;100.00;49930.63;4995194;28;50975;-60
2022/02/16 06:24:22;;;;;;;;;0.00;0.00;;;;;-147.17;100.00;49905.06;4994953;28;51312;-61
2022/02/16 06:26:47;;;;;;;;;0.00;0.00;;;;;-147.17;100.00;49934.56;4994811;28;50992;-61
2022/02/16 06:29:13;;;;;;;;;0.00;0.00;;;;;-147.17;100.00;49879.47;4994957;28;51409;-61
2022/02/16 06:31:39;;;;;;;;;0.00;0.00;;;;;-147.17;100.00;49926.69;4997445;28;51082;-61
2022/02/16 06:34:04;;;;;;;;;0.00;0.00;;;;;-147.17;100.00;49899.16;4995570;28;51016;-61
2022/02/16 06:36:29;;;;;;;;;0.00;0.00;;;;;-147.17;100.00;49895.22;4995203;28;51051;-61
2022/02/16 06:38:55;;;;;;;;;0.00;0.00;;;;;-147.17;100.00;49930.63;4994619;28;51869;-61
2022/02/16 06:41:21;;;;;;;;;0.00;0.00;;;;;-147.17;100.00;49920.81;4994537;28;50974;-61
2022/02/16 06:43:47;;;;;;;;;0.00;0.00;;;;;-147.17;100.00;49914.91;4998118;28;51121;-61
2022/02/16 06:46:12;;;;;;;;;0.00;0.00;;;;;-147.17;100.00;49960.16;4994880;28;51456;-60
2022/02/16 06:48:38;;;;;;;;;0.00;0.00;;;;;-147.17;100.00;49936.53;4990736;28;51866;-60
2022/02/16 06:51:04;;;;;;;;;0.00;0.00;;;;;-147.17;100.00;49914.91;4994503;28;51197;-60
2022/02/16 06:53:30;;;;;;;;;0.00;0.00;;;;;-147.17;100.00;49934.56;4976627;28;51229;-60
2022/02/16 06:55:55;;;;;;;;;0.00;0.00;;;;;-147.17;100.00;49938.50;4994104;28;51231;-59
2022/02/16 06:58:20;;;;;;;;;0.00;0.00;;;;;-147.17;100.00;49897.19;4994155;28;52031;-60
2022/02/16 07:00:46;;;;;;;;;0.00;0.00;;;;;-147.17;100.00;49950.31;4994183;28;51005;-59
2022/02/16 07:03:13;;;;;;;;;0.00;0.00;;;;;-147.17;100.00;49916.88;4989822;28;51270;-60
2022/02/16 07:05:39;;;;;;;;;0.00;0.00;;;;;-147.17;100.00;49973.94;4994736;28;50832;-61
2022/02/16 07:08:04;;;;;;;;;0.00;0.00;;;;;-147.17;100.00;49926.69;4976660;28;53703;-60
2022/02/16 07:10:30;;;;;;;;;0.00;0.00;;;;;-147.17;100.00;49901.13;4994608;28;51107;-60
2022/02/16 07:12:56;;;;;;;;;0.00;0.00;;;;;-147.17;100.00;49905.06;4994033;28;51131;-60
2022/02/16 07:15:21;;;;;;;;;0.00;0.00;;;;;-147.17;100.00;49918.84;4994238;28;50971;-61
2022/02/16 07:17:47;;;;;;;;;0.00;0.00;;;;;-147.17;100.00;49932.59;4994228;28;51596;-61
2022/02/16 07:20:14;;;;;;;;;0.00;0.00;;;;;-147.17;100.00;49934.56;4994236;28;51144;-60
2022/02/16 07:22:45;;;;;;;;;0.00;0.00;;;;;-147.17;100.00;49942.44;4976769;28;50996;-61
2022/02/16 07:25:12;;;;;;;;;1.00;0.00;;;;;-147.17;100.00;49918.84;4993878;28;51325;-61
2022/02/16 07:27:37;;;;;;;;;0.00;0.00;;;;;-147.17;100.00;49901.13;5002194;28;51097;-61
2022/02/16 07:30:05;;;;;;;;;1.00;1.00;;;;;-147.17;100.00;49932.59;4993086;28;51253;-61
2022/02/16 07:32:31;;;;;;;;;0.00;0.00;;;;;-147.17;100.00;49922.78;4992789;28;51191;-62
2022/02/16 07:34:56;;;;;;;;;1.00;0.00;;;;;-147.17;100.00;49897.19;4993483;28;51158;-62
2022/02/16 07:37:22;;;;;;;;;2.00;2.00;;;;;-147.17;100.00;49907.03;4993578;28;51446;-62
2022/02/16 07:39:47;;;;;;;;;0.00;0.00;;;;;-147.17;100.00;49914.91;4993581;28;51220;-62
2022/02/16 07:42:13;;;;;;;;;0.00;0.00;;;;;-147.17;100.00;49926.69;4993387;28;51111;-62
2022/02/16 07:44:39;;;;;;;;;0.00;0.00;;;;;-147.17;100.00;49920.81;4976198;28;50971;-62
2022/02/16 07:47:09;;;;;;;;;0.00;0.00;;;;;-147.17;100.00;49895.22;4993013;28;52013;-60
2022/02/16 07:49:36;;;;;;;;;3.00;2.00;;;;;-147.17;100.00;49926.69;4993535;28;51018;-61
2022/02/16 07:52:03;;;;;;;;;0.00;0.00;;;;;-147.17;100.00;49942.44;4993788;28;50878;-61
2022/02/16 07:54:29;;;;;;;;;0.33;0.33;;;;;-147.17;100.00;49924.72;4994173;28;51280;-61
2022/02/16 07:56:54;;;;;;;;;1.00;1.00;;;;;-147.17;100.00;49932.59;4993491;28;51003;-61
2022/02/16 07:59:20;;;;;;;;;1.00;0.00;;;;;-147.17;100.00;49942.44;4993536;28;51288;-61
2022/02/16 08:01:45;;;;;;;;;1.00;1.00;;;;;-147.17;100.00;49946.38;4992502;28;51177;-60
2022/02/16 08:04:16;;;;;;;;;3.00;3.00;;;;;-147.17;100.00;49944.41;4992952;28;50953;-61
2022/02/16 08:06:43;;;;;;;;;1.00;0.67;;;;;-147.17;100.00;49942.44;4993146;28;52047;-62
2022/02/16 08:09:10;;;;;;;;;1.00;1.00;;;;;-147.17;100.00;49910.97;4965671;28;50939;-61
2022/02/16 08:11:40;;;;;;;;;1.00;1.00;;;;;-147.17;100.00;49946.38;4975783;28;51235;-61
2022/02/16 08:14:06;;;;;;;;;0.00;0.00;;;;;-147.17;100.00;49918.84;4993504;28;51176;-61
2022/02/16 08:16:35;;;;;;;;;2.00;1.33;;;;;-147.17;100.00;49942.44;4992516;28;52127;-62
2022/02/16 08:19:03;;;;;;;;;1.33;1.33;;;;;-147.17;100.00;49944.41;4992642;28;51162;-62
2022/02/16 08:21:28;;;;;;;;;0.00;0.00;;;;;-147.17;100.00;49948.34;4993378;28;51074;-61
2022/02/16 08:23:54;;;;;;;;;2.67;2.33;;;;;-147.17;100.00;49973.94;4993619;28;51185;-61
2022/02/16 08:26:19;;;;;;;;;1.67;1.67;;;;;-147.17;100.00;49932.59;4993201;28;51694;-62
2022/02/16 08:28:45;;;;;;;;;3.00;3.00;;;;;-147.17;100.00;49942.44;4993223;28;51059;-61
2022/02/16 08:31:11;;;;;;;;;1.00;1.00;;;;;-147.17;100.00;49970.00;4993121;28;51175;-60
2022/02/16 08:33:37;;;;;;;;;2.00;2.00;;;;;-147.17;100.00;49897.19;4993451;28;51234;-61
2022/02/16 08:36:03;;;;;;;;;1.00;1.00;;;;;-147.17;100.00;49934.56;4992634;28;50865;-63
2022/02/16 08:38:28;;;;;;;;;2.00;2.00;;;;;-147.17;100.00;49958.19;4979923;28;50983;-62
2022/02/16 08:40:54;;;;;;;;;2.00;2.00;;;;;-147.17;100.00;49901.13;4993092;28;51455;-61
2022/02/16 08:43:19;;;;;;;;;0.00;0.00;;;;;-147.17;100.00;49934.56;4993286;28;51284;-62
2022/02/16 08:45:45;;;;;;;;;2.00;2.00;;;;;-147.17;100.00;49918.84;4981721;28;51800;-60
2022/02/16 08:48:11;;;;;;;;;3.00;2.33;;;;;-147.17;100.00;49910.97;4992204;28;51004;-62
2022/02/16 08:50:36;;;;;;;;;2.33;1.33;;;;;-147.17;100.00;49891.28;4993292;28;50988;-62
2022/02/16 08:53:02;;;;;;;;;1.00;1.00;;;;;-147.17;100.00;49820.41;4993036;28;51346;-61
2022/02/16 08:55:27;;;;;;;;;2.67;2.67;;;;;-147.17;100.00;49930.63;4992397;28;51970;-64
2022/02/16 08:57:53;;;;;;;;;2.67;2.67;;;;;-147.17;100.00;49964.09;4992521;28;51228;-61
2022/02/16 09:00:19;;;;;;;;;1.67;1.00;;;;;-147.17;100.00;49928.66;4991224;28;51289;-61
2022/02/16 09:02:44;;;;;;;;;2.00;2.00;;;;;-147.17;100.00;49956.22;4983687;28;51159;-61
2022/02/16 09:05:10;;;;;;;;;1.00;0.33;;;;;-147.17;100.00;49977.88;4986567;28;51681;-60
2022/02/16 09:07:35;;;;;;;;;2.33;2.33;;;;;-147.17;100.00;49981.81;4992334;28;51280;-61
2022/02/16 09:10:05;;;;;;;;;1.33;1.33;;;;;-147.17;100.00;49962.13;4992601;28;51432;-61
2022/02/16 09:12:30;;;;;;;;;1.00;1.00;;;;;-147.17;100.00;50003.47;4992467;28;51229;-61
2022/02/16 09:14:56;;;;;;;;;1.00;1.00;;;;;-147.17;100.00;49954.25;4991893;28;51671;-60
2022/02/16 09:17:24;;;;;;;;;9.67;9.67;;;;;-147.17;100.00;49995.59;4995554;28;51197;-60
2022/02/16 09:19:51;;;;;;;;;1.00;1.00;;;;;-147.17;100.00;50001.50;4994911;28;51198;-61
2022/02/16 09:22:16;;;;;;;;;4.00;4.00;;;;;-147.17;100.00;49989.69;4984224;28;51310;-61
2022/02/16 09:24:43;;;;;;;;;2.00;2.00;;;;;-147.17;100.00;50029.06;4995623;28;51083;-61
2022/02/16 09:27:08;;;;;;;;;1.00;1.00;;;;;-147.17;100.00;49985.75;4995572;28;51007;-61
2022/02/16 09:29:33;;;;;;;;;0.00;0.00;;;;;-147.17;100.00;50001.50;4995520;28;51420;-61
2022/02/16 09:31:59;;;;;;;;;1.00;1.00;;;;;-147.17;100.00;50023.16;4996475;28;50863;-61
2022/02/16 09:34:24;;;;;;;;;0.00;0.00;;;;;-147.17;100.00;50005.44;4995713;28;51657;-62
2022/02/16 09:36:50;;;;;;;;;0.00;0.00;;;;;-147.17;100.00;50048.75;4995976;28;51262;-61
2022/02/16 09:39:16;;;;;;;;;2.00;2.00;;;;;-147.17;100.00;49989.69;4995712;28;51016;-60
2022/02/16 09:41:44;;;;;;;;;2.67;1.67;;;;;-147.17;100.00;50025.13;4995861;28;50972;-61
2022/02/16 09:44:12;;;;;;;;;1.00;1.00;;;;;-147.17;100.00;49993.63;4977875;28;52821;-62
2022/02/16 09:46:38;;;;;;;;;1.00;1.00;;;;;-147.17;100.00;50056.63;4995426;28;51010;-60
2022/02/16 09:49:04;;;;;;;;;0.67;0.67;;;;;-147.17;100.00;50038.91;4996258;28;50984;-61
2022/02/16 09:51:29;;;;;;;;;9.33;8.33;;;;;-147.17;100.00;50050.72;4995934;28;51287;-62
2022/02/16 09:53:55;;;;;;;;;1.00;0.00;;;;;-147.17;100.00;50060.56;4977993;28;52479;-62
2022/02/16 09:56:20;;;;;;;;;3.00;3.00;;;;;-147.17;100.00;50019.22;4977832;28;51087;-62
2022/02/16 09:58:46;;;;;;;;;1.00;1.00;;;;;-147.17;100.00;50019.22;4977951;28;51610;-61
2022/02/16 10:01:13;;;;;;;;;0.00;0.00;;;;;-147.17;100.00;50076.31;4995625;28;51400;-62
2022/02/16 10:03:57;;;;;;;;;1.00;0.00;;;;;-147.17;100.00;50015.28;4977708;28;52021;-62
2022/02/16 10:06:38;;;;;;;;;0.67;0.67;;;;;-147.17;100.00;50005.44;4995033;28;51034;-61
2022/02/16 10:09:05;;;;;;;;;0.33;0.33;;;;;-147.17;100.00;50040.88;4994702;28;51214;-61
2022/02/16 10:11:31;;;;;;;;;0.67;0.67;;;;;-147.17;100.00;50009.38;4995166;28;51090;-61
2022/02/16 10:14:20;;;;;;;;;2.00;1.00;;;;;-147.17;100.00;50048.75;4994444;28;51270;-62
2022/02/16 10:16:47;;;;;;;;;2.67;2.67;;;;;-147.17;100.00;50060.56;4985578;28;51027;-61
2022/02/16 10:19:12;;;;;;;;;2.00;2.00;;;;;-147.17;100.00;50058.59;4994838;28;51013;-62
2022/02/16 10:21:38;;;;;;;;;1.00;1.00;;;;;-147.17;100.00;50060.56;4975747;28;51125;-62
2022/02/16 10:24:05;;;;;;;;;1.00;1.00;;;;;-147.17;100.00;50076.31;4993835;28;51816;-61
2022/02/16 10:26:50;;;;;;;;;1.00;1.00;;;;;-147.17;100.00;50094.00;4992941;28;51087;-61
2022/02/16 10:29:21;;;;;;;;;1.00;1.00;;;;;-147.17;100.00;50044.81;4993817;28;50967;-61
2022/02/16 10:31:50;;;;;;;;;2.00;2.00;;;;;-147.17;100.00;50052.69;4994432;28;50967;-61
2022/02/16 10:34:15;;;;;;;;;1.00;1.00;;;;;-147.17;100.00;50062.53;4994145;28;51878;-60
2022/02/16 10:36:41;;;;;;;;;1.00;1.00;;;;;-147.17;100.00;50103.84;4994316;28;51171;-60
2022/02/16 10:39:11;;;;;;;;;21.25;20.25;;;;;-147.17;100.00;50127.47;4994770;28;50944;-61
2022/02/16 10:41:44;;;;;;;;;3.00;3.00;;;;;-147.17;100.00;50092.03;4976188;28;51242;-61
2022/02/16 10:44:31;;;;;;;;;12.67;9.67;;;;;-147.17;100.00;50082.22;4987139;28;51252;-61
2022/02/16 10:47:17;;;;;;;;;0.00;0.00;;;;;-147.17;100.00;50072.38;4983762;28;50916;-63
2022/02/16 10:49:51;;;;;;;;;5.00;5.00;;;;;-147.17;100.00;50084.19;4994127;28;50893;-62
2022/02/16 10:52:19;;;;;;;;;2.00;1.33;;;;;-147.17;100.00;50076.31;4994722;28;51112;-61
2022/02/16 10:54:54;;;;;;;;;1.00;1.00;;;;;-147.17;100.00;50001.50;4994556;28;51827;-61
2022/02/16 10:57:20;;;;;;;;;2.00;1.00;;;;;-147.17;100.00;50064.50;4993507;28;51027;-61
2022/02/16 10:59:46;;;;;;;;;1.00;1.00;;;;;-147.17;100.00;49981.81;4994380;28;51170;-64
2022/02/16 11:02:16;;;;;;;;;16.50;16.50;;;;;-147.17;100.00;49989.69;4993973;28;51153;-61
2022/02/16 11:04:43;;;;;;;;;17.67;16.33;;;;;-147.17;100.00;49970.00;4990036;28;51793;-61